Terminal Aerodrome Forecast
Issued by NWS Wichita, KS

Home | Current Version | Previous Version | Text Only | Print | Product List | Glossary Off
Versions: 1 2 3 4 5 6 7 8 9 10 11 12 13 14 15 16 17

836
FTUS43 KICT 241127
TAFICT
TAF
KICT 241127Z 2412/2512 15010KT P6SM SCT080 BKN250
     FM241600 17014KT P6SM VCTS SCT040 BKN080CB
     FM241900 17014KT P6SM -SHRA VCTS BKN050CB
     FM250100 15010KT P6SM -SHRA VCTS BKN050CB
     FM250800 29004KT P6SM -SHRA VCTS OVC060CB=

USA.gov is the U.S. government's official web portal to all federal, state and local government web resources and services.